createdAt,value
2023-01-26T00:01:23.947Z,69.95
2023-01-26T00:03:51.427Z,71.47
2023-01-26T00:06:20.852Z,70.40
2023-01-26T00:08:50.170Z,68.40
2023-01-26T00:11:27.133Z,66.13
2023-01-26T00:13:58.389Z,74.65
2023-01-26T00:16:26.697Z,65.25
2023-01-26T00:18:54.320Z,67.55
2023-01-26T00:21:23.617Z,64.75
2023-01-26T00:23:52.147Z,70.78
2023-01-26T00:26:25.038Z,71.05
2023-01-26T00:31:21.649Z,65.32
2023-01-26T00:33:49.156Z,64.07
2023-01-26T00:36:16.139Z,56.92
2023-01-26T00:38:43.503Z,61.97
2023-01-26T00:41:34.040Z,63.90
2023-01-26T00:44:01.865Z,62.83
2023-01-26T00:46:29.078Z,61.47
2023-01-26T00:48:56.208Z,70.80
2023-01-26T00:51:23.403Z,66.75
2023-01-26T00:53:50.773Z,64.18
2023-01-26T00:56:19.553Z,64.72
2023-01-26T00:58:47.067Z,60.00
2023-01-26T01:01:14.696Z,56.92
2023-01-26T01:03:42.786Z,58.72
2023-01-26T01:06:09.649Z,69.72
2023-01-26T01:11:09.219Z,61.08
2023-01-26T01:13:36.110Z,64.57
2023-01-26T01:16:12.049Z,57.85
2023-01-26T01:18:39.250Z,51.47
2023-01-26T01:21:11.153Z,66.95
2023-01-26T01:23:38.361Z,58.35
2023-01-26T01:26:05.787Z,61.22
2023-01-26T01:28:33.738Z,62.60
2023-01-26T01:31:04.458Z,66.47
2023-01-26T01:33:31.656Z,62.50
2023-01-26T01:36:00.170Z,52.90
2023-01-26T01:38:27.720Z,60.83
2023-01-26T01:40:55.227Z,57.78
2023-01-26T01:43:23.026Z,59.30
2023-01-26T01:45:50.847Z,64.50
2023-01-26T01:48:24.285Z,64.13
2023-01-26T01:50:54.541Z,69.43
2023-01-26T01:53:34.702Z,59.00
2023-01-26T01:56:05.130Z,66.70
2023-01-26T01:58:33.792Z,61.13
2023-01-26T02:01:00.738Z,63.05
2023-01-26T02:03:29.241Z,71.88
2023-01-26T02:06:16.355Z,55.90
2023-01-26T02:08:44.196Z,57.15
2023-01-26T02:11:15.414Z,57.00
2023-01-26T02:13:44.038Z,52.13
2023-01-26T02:16:11.096Z,52.85
2023-01-26T02:18:38.618Z,63.15
2023-01-26T02:21:08.311Z,63.47
2023-01-26T02:24:01.577Z,64.93
2023-01-26T02:26:30.935Z,51.38
2023-01-26T02:28:58.630Z,63.38
2023-01-26T02:31:27.512Z,53.60
2023-01-26T02:33:56.213Z,57.25
2023-01-26T02:36:29.369Z,57.42
2023-01-26T02:39:39.429Z,61.53
2023-01-26T02:42:25.479Z,59.22
2023-01-26T02:44:52.536Z,56.30
2023-01-26T02:47:19.828Z,65.25
2023-01-26T02:49:48.576Z,54.05
2023-01-26T02:52:22.143Z,55.90
2023-01-26T02:55:14.289Z,60.17
2023-01-26T02:57:41.662Z,49.08
2023-01-26T03:00:14.654Z,60.50
2023-01-26T03:02:42.071Z,58.00
2023-01-26T03:05:09.340Z,55.58
2023-01-26T03:07:36.743Z,52.95
2023-01-26T03:10:04.809Z,55.70
2023-01-26T03:12:31.667Z,55.63
2023-01-26T03:15:18.096Z,59.90
2023-01-26T03:17:46.446Z,55.70
2023-01-26T03:20:32.023Z,63.20
2023-01-26T03:23:17.701Z,55.55
2023-01-26T03:26:03.018Z,53.97
2023-01-26T03:28:33.744Z,54.60
2023-01-26T03:31:01.002Z,45.60
2023-01-26T03:33:30.889Z,56.42
2023-01-26T03:35:57.745Z,57.22
2023-01-26T03:38:24.895Z,63.25
2023-01-26T03:41:16.920Z,54.85
2023-01-26T03:44:02.678Z,53.45
2023-01-26T03:46:48.737Z,53.88
2023-01-26T03:49:35.206Z,59.95
2023-01-26T03:52:20.895Z,46.65
2023-01-26T03:55:07.541Z,54.20
2023-01-26T03:57:35.575Z,47.88
2023-01-26T04:00:02.401Z,51.45
2023-01-26T04:02:58.045Z,47.95
2023-01-26T04:05:43.856Z,50.28
2023-01-26T04:08:29.286Z,49.70
2023-01-26T04:10:59.492Z,44.13
2023-01-26T04:13:45.397Z,57.35
2023-01-26T04:16:41.060Z,55.72
2023-01-26T04:19:27.986Z,49.20
2023-01-26T04:21:55.678Z,52.10
2023-01-26T04:24:22.856Z,50.78
2023-01-26T04:26:54.856Z,55.17
2023-01-26T04:29:42.347Z,46.40
2023-01-26T04:32:09.489Z,47.60
2023-01-26T04:34:36.819Z,44.03
2023-01-26T04:37:11.326Z,46.10
2023-01-26T04:39:45.484Z,46.88
2023-01-26T04:42:12.667Z,45.83
2023-01-26T04:44:39.596Z,51.63
2023-01-26T04:47:06.686Z,44.20
2023-01-26T04:49:33.696Z,38.97
2023-01-26T04:52:01.026Z,41.67
2023-01-26T04:54:29.569Z,42.20
2023-01-26T04:56:56.511Z,37.05
2023-01-26T04:59:24.029Z,40.15
2023-01-26T05:01:54.461Z,42.53
2023-01-26T05:04:21.707Z,42.20
2023-01-26T05:06:49.087Z,37.00
2023-01-26T05:09:16.169Z,37.20
2023-01-26T05:11:45.601Z,40.70
2023-01-26T05:14:30.336Z,42.92
2023-01-26T05:17:19.703Z,45.45
2023-01-26T05:20:06.114Z,50.00
2023-01-26T05:22:40.428Z,40.97
2023-01-26T05:25:26.289Z,40.97
2023-01-26T05:28:04.175Z,57.22
2023-01-26T05:30:31.931Z,52.58
2023-01-26T05:33:06.146Z,42.80
2023-01-26T05:35:34.535Z,54.50
2023-01-26T05:38:03.321Z,53.33
2023-01-26T05:40:33.201Z,42.13
2023-01-26T05:43:00.578Z,61.22
2023-01-26T05:45:46.755Z,51.33
2023-01-26T05:48:15.645Z,44.50
2023-01-26T05:50:44.224Z,48.42
2023-01-26T05:53:15.566Z,41.25
2023-01-26T05:55:43.738Z,38.13
2023-01-26T05:58:11.876Z,35.85
2023-01-26T06:00:40.028Z,42.22
2023-01-26T06:03:12.766Z,39.05
2023-01-26T06:05:40.388Z,24.27
2023-01-26T06:08:22.291Z,14.70
2023-01-26T06:11:00.796Z,26.77
2023-01-26T06:13:41.017Z,24.77
2023-01-26T06:16:25.022Z,24.13
2023-01-26T06:18:52.215Z,24.33
2023-01-26T06:21:19.785Z,23.95
2023-01-26T06:23:47.401Z,37.58
2023-01-26T06:26:15.479Z,28.67
2023-01-26T06:28:44.225Z,11.50
2023-01-26T06:31:11.689Z,22.27
2023-01-26T06:33:40.305Z,24.20
2023-01-26T06:36:11.144Z,14.38
2023-01-26T06:38:39.717Z,14.90
2023-01-26T06:41:08.237Z,17.40
2023-01-26T06:43:36.388Z,20.45
2023-01-26T06:46:04.956Z,18.35
2023-01-26T06:48:35.187Z,19.35
2023-01-26T06:51:16.582Z,11.32
2023-01-26T06:53:53.537Z,16.58
2023-01-26T06:56:34.064Z,22.58
2023-01-26T06:59:20.900Z,19.40
2023-01-26T07:01:58.305Z,28.15
2023-01-26T07:04:26.729Z,20.77
2023-01-26T07:06:53.804Z,11.40
2023-01-26T07:09:20.624Z,28.20
2023-01-26T07:11:48.045Z,18.00
2023-01-26T07:14:15.000Z,17.33
2023-01-26T07:16:41.895Z,10.05
2023-01-26T07:19:08.936Z,16.17
2023-01-26T07:21:36.329Z,20.08
2023-01-26T07:24:03.636Z,15.82
2023-01-26T07:26:31.004Z,12.65
2023-01-26T07:28:57.847Z,15.35
2023-01-26T07:31:24.605Z,15.13
2023-01-26T07:33:51.686Z,18.92
2023-01-26T07:36:18.745Z,47.63
2023-01-26T07:38:45.586Z,26.48
2023-01-26T07:41:13.426Z,19.98
2023-01-26T07:43:42.006Z,18.52
2023-01-26T07:46:10.942Z,17.75
2023-01-26T07:48:37.847Z,21.80
2023-01-26T07:51:05.908Z,21.83
2023-01-26T07:53:38.047Z,20.42
2023-01-26T07:56:16.246Z,16.38
2023-01-26T07:58:43.606Z,23.30
2023-01-26T08:01:12.971Z,22.40
2023-01-26T08:03:40.829Z,19.85
2023-01-26T08:06:11.789Z,11.77
2023-01-26T08:08:42.469Z,26.08
2023-01-26T08:11:11.179Z,17.80
2023-01-26T08:13:39.043Z,17.67
2023-01-26T08:16:12.344Z,17.40
2023-01-26T08:18:41.755Z,18.50
2023-01-26T08:21:09.318Z,25.02
2023-01-26T08:23:36.649Z,20.00
2023-01-26T08:26:05.882Z,15.38
2023-01-26T08:28:34.055Z,17.67
2023-01-26T08:31:11.724Z,23.92
2023-01-26T08:33:41.404Z,25.48
2023-01-26T08:36:11.911Z,24.45
2023-01-26T08:38:39.186Z,27.63
2023-01-26T08:41:06.963Z,19.05
2023-01-26T08:43:34.277Z,20.58
2023-01-26T08:46:02.231Z,26.77
2023-01-26T08:48:33.641Z,18.92
2023-01-26T08:51:03.006Z,26.80
2023-01-26T08:53:32.412Z,13.77
2023-01-26T08:56:04.014Z,29.92
2023-01-26T08:58:31.997Z,15.77
2023-01-26T09:00:59.386Z,21.55
2023-01-26T09:03:26.564Z,16.92
2023-01-26T09:05:53.489Z,10.95
2023-01-26T09:08:20.615Z,29.83
2023-01-26T09:10:47.504Z,14.75
2023-01-26T09:13:15.127Z,12.98
2023-01-26T09:15:41.976Z,25.05
2023-01-26T09:18:09.876Z,24.63
2023-01-26T09:20:39.065Z,15.70
2023-01-26T09:23:06.292Z,22.90
2023-01-26T09:25:37.246Z,15.75
2023-01-26T09:28:05.656Z,17.27
2023-01-26T09:30:32.955Z,15.93
2023-01-26T09:33:04.985Z,8.88
2023-01-26T09:35:32.053Z,14.88
2023-01-26T09:37:59.496Z,15.55
2023-01-26T09:40:37.485Z,19.02
2023-01-26T09:43:15.526Z,19.48
2023-01-26T09:46:15.716Z,15.10
2023-01-26T09:48:46.265Z,13.05
2023-01-26T09:51:19.985Z,21.33
2023-01-26T09:53:59.885Z,16.20
2023-01-26T09:56:29.125Z,17.65
2023-01-26T09:59:32.225Z,23.42
2023-01-26T10:02:04.965Z,18.67
2023-01-26T10:07:10.228Z,10.18
2023-01-26T10:09:49.386Z,35.17
2023-01-26T10:12:23.894Z,15.55
2023-01-26T10:15:03.051Z,17.52
2023-01-26T10:20:10.347Z,15.38
2023-01-26T10:22:46.217Z,8.25
2023-01-26T10:25:17.051Z,8.23
2023-01-26T10:27:46.217Z,7.07
2023-01-26T10:30:18.141Z,8.60
2023-01-26T10:32:46.795Z,11.50
2023-01-26T10:35:20.852Z,9.25
2023-01-26T10:37:48.514Z,14.57
2023-01-26T10:40:17.620Z,5.25
2023-01-26T10:42:56.021Z,11.38
2023-01-26T10:45:32.185Z,19.40
2023-01-26T10:48:20.575Z,9.55
2023-01-26T10:50:48.603Z,14.07
2023-01-26T10:53:17.625Z,10.20
2023-01-26T10:56:02.306Z,10.40
2023-01-26T10:58:49.573Z,14.68
2023-01-26T11:01:19.062Z,7.20
2023-01-26T11:04:03.520Z,15.70
2023-01-26T11:06:31.547Z,12.93
2023-01-26T11:09:26.113Z,14.45
2023-01-26T11:12:01.469Z,15.30
2023-01-26T11:14:29.751Z,17.60
2023-01-26T11:17:01.873Z,15.63
2023-01-26T11:20:03.167Z,8.50
2023-01-26T11:22:36.686Z,9.27
2023-01-26T11:25:10.297Z,13.07
2023-01-26T11:27:47.653Z,13.63
2023-01-26T11:30:29.412Z,12.25
2023-01-26T11:33:16.757Z,15.85
2023-01-26T11:36:16.456Z,12.98
2023-01-26T11:38:56.124Z,15.50
2023-01-26T11:41:32.446Z,11.25
2023-01-26T11:44:14.290Z,20.60
2023-01-26T11:46:50.494Z,10.30
2023-01-26T11:49:44.079Z,13.10
2023-01-26T11:52:30.078Z,15.48
2023-01-26T11:55:17.930Z,13.43
2023-01-26T11:58:10.248Z,17.13
2023-01-26T12:00:41.896Z,18.48
2023-01-26T12:03:21.251Z,15.10
2023-01-26T12:05:52.111Z,18.02
2023-01-26T12:08:50.647Z,17.25
2023-01-26T12:11:36.273Z,28.73
2023-01-26T12:14:15.568Z,8.95
2023-01-26T12:17:20.693Z,9.50
2023-01-26T12:20:21.145Z,10.27
2023-01-26T12:23:02.539Z,9.10
2023-01-26T12:25:36.257Z,8.30
2023-01-26T12:28:15.070Z,9.73
2023-01-26T12:30:52.478Z,8.15
2023-01-26T12:33:20.241Z,11.23
2023-01-26T12:36:21.629Z,9.13
2023-01-26T12:39:08.081Z,6.00
2023-01-26T12:42:12.801Z,13.90
2023-01-26T12:44:57.124Z,6.35
2023-01-26T12:47:32.869Z,9.68
2023-01-26T12:50:04.115Z,9.07
2023-01-26T12:52:44.915Z,5.93
2023-01-26T12:55:24.956Z,9.10
2023-01-26T12:57:56.440Z,9.15
2023-01-26T13:00:31.683Z,9.73
2023-01-26T13:03:23.669Z,8.45
2023-01-26T13:06:12.576Z,11.35
2023-01-26T13:09:00.785Z,12.48
2023-01-26T13:11:42.849Z,11.15
2023-01-26T13:14:30.823Z,12.45
2023-01-26T13:17:19.436Z,17.92
2023-01-26T13:19:46.670Z,8.60
2023-01-26T13:22:38.860Z,13.43
2023-01-26T13:25:27.707Z,5.40
2023-01-26T13:28:00.386Z,7.00
2023-01-26T13:30:35.072Z,6.43
2023-01-26T13:33:14.200Z,7.90
2023-01-26T13:35:41.593Z,11.50
2023-01-26T13:38:29.840Z,5.90
2023-01-26T13:40:59.997Z,9.40
2023-01-26T13:43:30.030Z,10.18
2023-01-26T13:46:18.429Z,6.32
2023-01-26T13:48:47.146Z,6.22
2023-01-26T13:51:29.304Z,12.32
2023-01-26T13:53:59.314Z,8.45
2023-01-26T13:56:34.193Z,8.18
2023-01-26T13:59:16.430Z,10.55
2023-01-26T14:01:49.770Z,13.35
2023-01-26T14:04:38.078Z,11.90
2023-01-26T14:07:07.194Z,22.10
2023-01-26T14:09:51.113Z,7.32
2023-01-26T14:12:23.813Z,5.60
2023-01-26T14:17:28.288Z,11.98
2023-01-26T14:19:56.818Z,8.95
2023-01-26T14:22:24.273Z,6.13
2023-01-26T14:24:52.392Z,11.10
2023-01-26T14:27:37.239Z,6.40
2023-01-26T14:30:30.441Z,17.13
2023-01-26T14:33:24.110Z,8.40
2023-01-26T14:36:00.745Z,19.38
2023-01-26T14:38:28.943Z,7.68
2023-01-26T14:41:00.470Z,10.55
2023-01-26T14:43:28.061Z,10.15
2023-01-26T14:45:59.157Z,10.18
2023-01-26T14:48:32.070Z,10.82
2023-01-26T14:50:59.952Z,11.48
2023-01-26T14:53:27.796Z,9.93
2023-01-26T14:55:54.846Z,6.65
2023-01-26T14:58:21.525Z,12.68
2023-01-26T15:00:50.476Z,7.35
2023-01-26T15:03:26.790Z,8.98
2023-01-26T15:06:21.514Z,11.27
2023-01-26T15:09:01.063Z,7.47
2023-01-26T15:11:52.473Z,14.07
2023-01-26T15:14:56.109Z,9.13
2023-01-26T15:17:42.948Z,8.82
2023-01-26T15:20:15.524Z,4.43
2023-01-26T15:22:50.187Z,7.07
2023-01-26T15:25:18.457Z,5.40
2023-01-26T15:27:59.759Z,5.60
2023-01-26T15:30:27.984Z,6.63
2023-01-26T15:32:55.290Z,5.13
2023-01-26T15:35:28.488Z,8.63
2023-01-26T15:38:06.845Z,7.30
2023-01-26T15:40:33.928Z,11.20
2023-01-26T15:43:20.645Z,8.80
2023-01-26T15:45:56.239Z,6.70
2023-01-26T15:48:24.779Z,8.18
2023-01-26T15:50:52.788Z,6.10
2023-01-26T15:53:21.692Z,6.90
2023-01-26T15:55:53.126Z,7.75
2023-01-26T15:58:21.129Z,6.55
2023-01-26T16:00:48.521Z,6.85
2023-01-26T16:03:17.977Z,6.63
2023-01-26T16:05:47.825Z,8.13
2023-01-26T16:08:18.592Z,10.80
2023-01-26T16:10:46.449Z,7.25
2023-01-26T16:13:18.093Z,10.77
2023-01-26T16:15:45.961Z,14.73
2023-01-26T16:18:12.836Z,9.00
2023-01-26T16:20:42.464Z,11.70
2023-01-26T16:23:25.550Z,6.78
2023-01-26T16:25:53.005Z,14.60
2023-01-26T16:28:21.141Z,10.63
2023-01-26T16:30:51.028Z,5.72
2023-01-26T16:33:21.502Z,6.68
2023-01-26T16:35:48.575Z,10.93
2023-01-26T16:38:15.571Z,12.80
2023-01-26T16:40:44.876Z,10.77
2023-01-26T16:43:16.843Z,7.20
2023-01-26T16:45:43.616Z,9.55
2023-01-26T16:48:14.887Z,8.15
2023-01-26T16:50:42.955Z,12.27
2023-01-26T16:53:42.929Z,10.55
2023-01-26T16:56:11.718Z,8.55
2023-01-26T16:58:39.218Z,7.20
2023-01-26T17:01:06.409Z,4.88
2023-01-26T17:03:33.425Z,11.45
2023-01-26T17:06:00.458Z,8.13
2023-01-26T17:08:27.740Z,9.27
2023-01-26T17:11:02.363Z,20.02
2023-01-26T17:13:32.674Z,10.55
2023-01-26T17:16:00.125Z,8.75
2023-01-26T17:18:27.549Z,9.68
2023-01-26T17:20:55.114Z,8.02
2023-01-26T17:23:22.227Z,5.47
2023-01-26T17:25:49.496Z,11.73
2023-01-26T17:28:17.061Z,11.63
2023-01-26T17:30:44.322Z,3.28
2023-01-26T17:33:11.187Z,8.07
2023-01-26T17:35:37.977Z,7.22
2023-01-26T17:38:05.313Z,7.95
2023-01-26T17:40:32.524Z,11.40
2023-01-26T17:42:59.823Z,8.10
2023-01-26T17:45:26.780Z,10.32
2023-01-26T17:47:54.373Z,13.23
2023-01-26T17:50:21.348Z,11.27
2023-01-26T17:52:48.628Z,6.38
2023-01-26T17:55:15.400Z,9.45
2023-01-26T17:57:42.653Z,6.97
2023-01-26T18:00:12.428Z,7.10
2023-01-26T18:02:39.360Z,17.90
2023-01-26T18:05:07.773Z,12.25
2023-01-26T18:07:34.839Z,8.55
2023-01-26T18:10:02.162Z,13.80
2023-01-26T18:12:29.498Z,13.68
2023-01-26T18:14:57.228Z,17.95
2023-01-26T18:17:24.538Z,13.25
2023-01-26T18:19:51.798Z,12.27
2023-01-26T18:22:18.960Z,8.77
2023-01-26T18:24:46.083Z,21.52
2023-01-26T18:27:13.525Z,19.27
2023-01-26T18:29:41.008Z,17.30
2023-01-26T18:32:08.471Z,10.30
2023-01-26T18:34:35.744Z,10.82
2023-01-26T18:37:03.180Z,9.68
2023-01-26T18:39:30.631Z,11.55
2023-01-26T18:41:57.842Z,8.60
2023-01-26T18:44:27.246Z,12.02
2023-01-26T18:46:54.772Z,9.70
2023-01-26T18:49:22.226Z,14.57
2023-01-26T18:51:50.256Z,11.13
2023-01-26T18:54:19.188Z,8.73
2023-01-26T18:56:47.065Z,8.40
2023-01-26T18:59:14.473Z,5.55
2023-01-26T19:01:43.937Z,9.45
2023-01-26T19:04:11.541Z,6.78
2023-01-26T19:06:38.992Z,7.03
2023-01-26T19:09:07.675Z,10.27
2023-01-26T19:11:38.077Z,4.35
2023-01-26T19:14:06.570Z,9.75
2023-01-26T19:16:34.115Z,12.35
2023-01-26T19:19:01.770Z,8.80
2023-01-26T19:21:29.573Z,9.27
2023-01-26T19:23:59.021Z,8.70
2023-01-26T19:26:29.587Z,13.07
2023-01-26T19:28:56.798Z,9.57
2023-01-26T19:31:26.606Z,10.88
2023-01-26T19:33:55.837Z,10.10
2023-01-26T19:36:23.859Z,4.75
2023-01-26T19:38:51.400Z,11.65
2023-01-26T19:41:20.372Z,6.95
2023-01-26T19:43:47.468Z,8.35
2023-01-26T19:46:15.673Z,13.90
2023-01-26T19:48:43.254Z,9.73
2023-01-26T19:51:12.148Z,9.57
2023-01-26T19:53:41.737Z,14.30
2023-01-26T19:56:17.051Z,16.98
2023-01-26T19:58:49.363Z,10.20
2023-01-26T20:01:16.750Z,13.85
2023-01-26T20:03:44.175Z,16.45
2023-01-26T20:06:15.404Z,14.13
2023-01-26T20:08:43.468Z,15.55
2023-01-26T20:11:11.426Z,10.13
2023-01-26T20:13:39.228Z,10.63
2023-01-26T20:16:10.135Z,10.75
2023-01-26T20:18:38.718Z,13.48
2023-01-26T20:21:07.371Z,14.75
2023-01-26T20:23:35.469Z,16.80
2023-01-26T20:26:07.795Z,6.70
2023-01-26T20:28:35.899Z,13.05
2023-01-26T20:31:16.637Z,13.15
2023-01-26T20:33:47.794Z,16.95
2023-01-26T20:36:17.658Z,13.18
2023-01-26T20:38:45.408Z,14.05
2023-01-26T20:41:15.470Z,16.15
2023-01-26T20:43:57.360Z,8.77
2023-01-26T20:46:28.019Z,10.98
2023-01-26T20:48:56.179Z,13.35
2023-01-26T20:51:28.889Z,14.95
2023-01-26T20:56:23.167Z,5.25
2023-01-26T20:58:53.538Z,11.50
2023-01-26T21:01:21.944Z,18.52
2023-01-26T21:03:49.633Z,15.10
2023-01-26T21:06:21.358Z,11.15
2023-01-26T21:08:49.694Z,20.55
2023-01-26T21:11:17.386Z,14.85
2023-01-26T21:13:45.708Z,17.95
2023-01-26T21:16:15.078Z,10.82
2023-01-26T21:18:43.149Z,16.67
2023-01-26T21:21:13.064Z,14.77
2023-01-26T21:23:40.688Z,11.38
2023-01-26T21:26:16.568Z,10.60
2023-01-26T21:28:43.845Z,13.40
2023-01-26T21:31:15.514Z,12.02
2023-01-26T21:33:45.108Z,12.90
2023-01-26T21:36:14.820Z,7.45
2023-01-26T21:38:44.273Z,13.50
2023-01-26T21:41:42.460Z,18.88
2023-01-26T21:44:15.287Z,5.65
2023-01-26T21:46:45.247Z,18.75
2023-01-26T21:49:13.706Z,13.95
2023-01-26T21:51:59.377Z,16.42
2023-01-26T21:54:27.047Z,21.10
2023-01-26T21:56:54.225Z,10.07
2023-01-26T21:59:21.318Z,17.10
2023-01-26T22:01:51.000Z,11.57
2023-01-26T22:04:29.540Z,17.40
2023-01-26T22:06:57.730Z,15.27
2023-01-26T22:09:25.400Z,14.13
2023-01-26T22:11:52.992Z,14.90
2023-01-26T22:14:22.664Z,24.98
2023-01-26T22:16:50.179Z,15.15
2023-01-26T22:19:17.376Z,28.80
2023-01-26T22:21:44.937Z,8.82
2023-01-26T22:24:13.707Z,16.88
2023-01-26T22:26:41.596Z,18.98
2023-01-26T22:29:12.213Z,14.38
2023-01-26T22:31:39.915Z,11.07
2023-01-26T22:34:07.219Z,12.73
2023-01-26T22:36:34.528Z,9.20
2023-01-26T22:39:01.910Z,8.75
2023-01-26T22:41:30.828Z,12.43
2023-01-26T22:44:00.089Z,9.15
2023-01-26T22:46:30.093Z,10.88
2023-01-26T22:48:58.776Z,12.02
2023-01-26T22:51:28.928Z,9.20
2023-01-26T22:53:57.568Z,14.50
2023-01-26T22:56:25.812Z,8.98
2023-01-26T22:58:58.372Z,15.25
2023-01-26T23:01:31.513Z,14.48
2023-01-26T23:03:59.985Z,17.27
2023-01-26T23:06:27.348Z,12.13
2023-01-26T23:08:55.497Z,9.77
2023-01-26T23:11:25.888Z,17.75
2023-01-26T23:13:54.937Z,19.08
2023-01-26T23:16:23.912Z,17.17
2023-01-26T23:18:53.214Z,12.07
2023-01-26T23:21:21.146Z,11.82
2023-01-26T23:23:48.839Z,10.63
2023-01-26T23:26:16.087Z,8.43
2023-01-26T23:28:44.324Z,13.20
2023-01-26T23:31:12.775Z,12.80
2023-01-26T23:33:40.853Z,11.38
2023-01-26T23:36:09.394Z,9.57
2023-01-26T23:38:36.692Z,12.88
2023-01-26T23:41:05.636Z,7.72
2023-01-26T23:43:33.357Z,8.85
2023-01-26T23:46:00.741Z,5.05
2023-01-26T23:48:28.264Z,8.30
2023-01-26T23:51:00.324Z,9.38
2023-01-26T23:53:28.634Z,8.07
2023-01-26T23:55:56.561Z,8.48
2023-01-26T23:58:24.069Z,11.32
